Time;durP1;ratioP1;P1;durP2;ratioP2;P2;SDS_P1;SDS_P2;PMS_P1;PMS_P2;Temp;Humidity;BMP_temperature;BMP_pressure;BME280_temperature;BME280_humidity;BME280_pressure;Samples;Min_cycle;Max_cycle;Signal;HPM_P1;HPM_P2
2023/05/02 00:01:40;;;;;;;16.42;9.63;;;11.20;99.90;;;;;;5012298;28;20122;-79
2023/05/02 00:04:06;;;;;;;14.73;9.18;;;11.80;99.90;;;;;;5045946;28;20052;-78
2023/05/02 00:06:32;;;;;;;12.48;8.30;;;11.20;99.90;;;;;;5046728;28;20131;-79
2023/05/02 00:08:57;;;;;;;13.27;7.90;;;11.10;99.90;;;;;;5046382;28;20452;-79
2023/05/02 00:11:23;;;;;;;13.13;7.95;;;11.00;99.90;;;;;;5028477;28;20464;-79
2023/05/02 00:13:49;;;;;;;11.07;7.57;;;11.00;99.90;;;;;;5050080;28;20037;-79
2023/05/02 00:16:15;;;;;;;13.05;7.40;;;11.00;99.90;;;;;;5030951;28;20105;-79
2023/05/02 00:18:40;;;;;;;14.68;6.95;;;10.90;99.90;;;;;;5050758;28;20116;-79
2023/05/02 00:21:07;;;;;;;14.23;6.55;;;10.80;99.90;;;;;;5049676;28;20068;-79
2023/05/02 00:23:33;;;;;;;10.52;6.38;;;11.20;99.90;;;;;;5050519;28;20041;-79
2023/05/02 00:25:58;;;;;;;10.43;6.20;;;10.70;99.90;;;;;;5049541;28;20068;-79
2023/05/02 00:28:25;;;;;;;12.60;6.45;;;10.70;99.90;;;;;;5032540;28;20045;-79
2023/05/02 00:30:51;;;;;;;13.55;6.22;;;10.60;99.90;;;;;;5048821;28;20126;-80
2023/05/02 00:33:17;;;;;;;9.35;4.70;;;10.60;99.90;;;;;;5036203;28;20123;-80
2023/05/02 00:35:43;;;;;;;6.70;4.45;;;10.50;99.90;;;;;;5034544;28;20094;-79
2023/05/02 00:38:09;;;;;;;5.47;3.72;;;10.40;99.90;;;;;;5030112;28;20045;-79
2023/05/02 00:40:51;;;;;;;6.20;3.58;;;10.40;99.90;;;;;;5031475;28;20049;-79
2023/05/02 00:43:17;;;;;;;9.93;3.75;;;10.30;99.90;;;;;;5049243;28;20102;-80
2023/05/02 00:45:45;;;;;;;5.75;3.60;;;10.40;99.90;;;;;;5032979;28;20045;-80
2023/05/02 00:48:11;;;;;;;7.15;4.35;;;10.40;99.90;;;;;;5032350;28;20177;-80
2023/05/02 00:50:41;;;;;;;7.35;4.88;;;10.00;99.90;;;;;;5031745;28;20048;-79
2023/05/02 00:53:08;;;;;;;9.55;4.30;;;9.90;99.90;;;;;;5031885;28;20052;-79
2023/05/02 00:55:35;;;;;;;8.85;4.25;;;9.90;99.90;;;;;;5049253;28;20041;-79
2023/05/02 00:58:10;;;;;;;9.70;4.65;;;9.90;99.90;;;;;;5031005;28;20078;-79
2023/05/02 01:00:54;;;;;;;10.65;4.82;;;10.20;99.90;;;;;;5031341;28;20052;-79
2023/05/02 01:03:32;;;;;;;7.80;4.28;;;9.90;99.90;;;;;;5041419;28;20048;-80
2023/05/02 01:06:23;;;;;;;5.97;3.83;;;9.80;99.90;;;;;;5034063;28;20123;-79
2023/05/02 01:09:16;;;;;;;7.15;4.13;;;9.80;99.90;;;;;;5008849;28;20051;-80
2023/05/02 01:12:05;;;;;;;9.68;4.82;;;9.80;99.90;;;;;;5030740;28;20061;-80
2023/05/02 01:14:39;;;;;;;9.57;4.20;;;9.80;99.90;;;;;;5024532;28;20045;-79
2023/05/02 01:17:08;;;;;;;8.30;4.28;;;10.10;99.90;;;;;;5029627;28;20080;-80
2023/05/02 01:19:42;;;;;;;5.38;4.05;;;9.80;99.90;;;;;;5045711;28;20049;-79
2023/05/02 01:22:10;;;;;;;8.30;4.35;;;9.80;99.90;;;;;;5024702;28;20419;-79
2023/05/02 01:24:51;;;;;;;12.30;4.20;;;10.10;99.90;;;;;;5048020;28;20045;-79
2023/05/02 01:27:45;;;;;;;10.35;5.43;;;9.70;99.90;;;;;;5030341;28;20094;-79
2023/05/02 01:30:12;;;;;;;7.47;4.32;;;9.70;99.90;;;;;;5042969;28;20149;-79
2023/05/02 01:32:42;;;;;;;10.60;4.47;;;9.90;99.90;;;;;;5014626;28;20045;-79
2023/05/02 01:35:09;;;;;;;10.07;4.25;;;9.80;99.90;;;;;;5049423;28;20103;-80
2023/05/02 01:37:38;;;;;;;6.13;3.67;;;9.70;99.90;;;;;;5048051;28;20041;-80
2023/05/02 01:40:06;;;;;;;4.95;3.42;;;9.60;99.90;;;;;;5047719;28;20114;-79
2023/05/02 01:42:35;;;;;;;6.95;4.18;;;9.70;99.90;;;;;;5038518;28;20075;-80
2023/05/02 01:45:04;;;;;;;7.68;3.70;;;9.60;99.90;;;;;;5048704;28;20384;-80
2023/05/02 01:47:34;;;;;;;6.18;3.60;;;9.60;99.90;;;;;;5030803;28;20045;-80
2023/05/02 01:50:02;;;;;;;8.30;3.75;;;9.60;99.90;;;;;;5042140;28;20563;-80
2023/05/02 01:52:29;;;;;;;8.25;3.70;;;9.60;99.90;;;;;;5030294;28;20099;-80
2023/05/02 01:54:58;;;;;;;5.18;3.58;;;9.60;99.90;;;;;;5046951;28;20107;-80
2023/05/02 01:57:24;;;;;;;9.80;3.78;;;9.60;99.90;;;;;;5030304;28;20434;-79
2023/05/02 01:59:50;;;;;;;7.43;3.50;;;9.60;99.90;;;;;;5029221;28;20136;-79
2023/05/02 02:02:17;;;;;;;9.18;3.78;;;9.50;99.90;;;;;;5050950;28;20420;-79
2023/05/02 02:04:43;;;;;;;5.72;3.28;;;9.50;99.90;;;;;;5047914;28;20154;-79
2023/05/02 02:07:12;;;;;;;6.28;3.65;;;9.50;99.90;;;;;;5030990;28;20053;-79
2023/05/02 02:09:38;;;;;;;7.55;3.05;;;9.40;99.90;;;;;;5030038;28;20083;-79
2023/05/02 02:12:10;;;;;;;5.85;3.63;;;9.50;99.90;;;;;;5027110;28;20446;-79
2023/05/02 02:14:42;;;;;;;7.80;3.40;;;9.50;99.90;;;;;;5023183;28;20053;-79
2023/05/02 02:17:34;;;;;;;7.28;3.75;;;9.50;99.90;;;;;;5059316;28;20131;-79
2023/05/02 02:20:04;;;;;;;6.20;3.40;;;9.40;99.90;;;;;;5059731;28;20407;-79
2023/05/02 02:22:32;;;;;;;5.30;3.25;;;9.50;99.90;;;;;;5030163;28;20036;-79
2023/05/02 02:24:58;;;;;;;9.85;4.07;;;9.50;99.90;;;;;;5047212;28;20048;-79
2023/05/02 02:27:24;;;;;;;6.70;3.72;;;9.50;99.90;;;;;;5041951;28;20086;-79
2023/05/02 02:29:50;;;;;;;6.18;3.53;;;9.50;99.90;;;;;;5047313;28;20052;-80
2023/05/02 02:32:15;;;;;;;7.47;3.70;;;10.20;99.90;;;;;;5039655;28;20045;-80
2023/05/02 02:34:41;;;;;;;7.30;3.60;;;9.60;99.90;;;;;;5046134;28;20052;-80
2023/05/02 02:37:14;;;;;;;6.07;3.40;;;9.50;99.90;;;;;;5029638;28;20049;-79
2023/05/02 02:40:04;;;;;;;7.15;3.40;;;9.50;99.90;;;;;;5046713;28;20159;-79
2023/05/02 02:42:47;;;;;;;9.32;3.72;;;9.40;99.90;;;;;;5028997;28;20067;-79
2023/05/02 02:45:35;;;;;;;8.25;3.85;;;9.40;99.90;;;;;;5029019;28;20056;-79
2023/05/02 02:48:09;;;;;;;7.45;3.30;;;9.30;99.90;;;;;;5046464;28;20056;-79
2023/05/02 02:50:59;;;;;;;9.45;3.33;;;9.20;99.90;;;;;;5040061;28;20499;-80
2023/05/02 02:53:33;;;;;;;9.73;2.92;;;9.20;99.90;;;;;;5046300;28;20048;-80
2023/05/02 02:56:09;;;;;;;11.13;3.58;;;9.00;99.90;;;;;;5029721;28;20128;-80
2023/05/02 02:58:59;;;;;;;14.88;4.10;;;8.90;99.90;;;;;;5029224;28;20098;-80
2023/05/02 03:01:29;;;;;;;10.93;3.72;;;8.80;99.90;;;;;;5029028;28;20052;-80
2023/05/02 03:03:56;;;;;;;14.98;4.35;;;8.80;99.90;;;;;;5045375;28;20844;-80
2023/05/02 03:06:23;;;;;;;15.38;4.13;;;8.70;99.90;;;;;;5026858;28;20084;-80
2023/05/02 03:08:49;;;;;;;13.85;3.78;;;8.70;99.90;;;;;;5045176;28;20037;-80
2023/05/02 03:11:15;;;;;;;16.40;4.28;;;8.60;99.90;;;;;;5011153;28;20040;-80
2023/05/02 03:13:40;;;;;;;10.88;3.63;;;8.60;99.90;;;;;;5027404;28;20044;-79
2023/05/02 03:16:31;;;;;;;17.52;4.35;;;8.60;99.90;;;;;;5028988;28;20403;-80
2023/05/02 03:18:57;;;;;;;12.25;3.80;;;8.60;99.90;;;;;;5037331;28;20044;-80
2023/05/02 03:21:22;;;;;;;16.88;4.10;;;8.60;99.90;;;;;;5029796;28;20041;-79
2023/05/02 03:23:48;;;;;;;17.05;4.32;;;8.50;99.90;;;;;;5028318;28;20048;-79
2023/05/02 03:26:13;;;;;;;16.90;4.00;;;8.50;99.90;;;;;;5029478;28;20044;-79
2023/05/02 03:28:39;;;;;;;13.43;4.40;;;8.50;99.90;;;;;;5027392;28;20049;-80
2023/05/02 03:31:05;;;;;;;14.00;3.88;;;8.50;99.90;;;;;;5043381;28;20397;-79
2023/05/02 03:33:31;;;;;;;13.38;4.10;;;8.50;99.90;;;;;;5027302;28;20049;-80
2023/05/02 03:35:57;;;;;;;13.43;4.10;;;8.50;99.90;;;;;;5027955;28;20064;-79
2023/05/02 03:38:23;;;;;;;17.67;4.28;;;8.50;99.90;;;;;;5024431;28;20038;-80
2023/05/02 03:40:48;;;;;;;15.18;4.65;;;8.40;99.90;;;;;;5025732;28;20377;-80
2023/05/02 03:43:14;;;;;;;14.52;4.47;;;8.40;99.90;;;;;;5019695;28;20079;-80
2023/05/02 03:45:41;;;;;;;13.45;4.15;;;8.40;99.90;;;;;;5027260;28;20080;-80
2023/05/02 03:48:06;;;;;;;15.30;4.10;;;8.30;99.90;;;;;;5032960;28;20068;-80
2023/05/02 03:50:32;;;;;;;16.98;4.78;;;8.30;99.90;;;;;;5042921;28;20037;-79
2023/05/02 03:52:57;;;;;;;17.17;4.45;;;8.30;99.90;;;;;;5015600;28;20075;-82
2023/05/02 03:55:23;;;;;;;15.13;4.10;;;8.20;99.90;;;;;;5033045;28;20072;-79
2023/05/02 03:57:48;;;;;;;15.25;4.15;;;8.20;99.90;;;;;;5015797;28;20534;-80
2023/05/02 04:00:14;;;;;;;15.13;4.32;;;8.20;99.90;;;;;;5032465;28;20037;-79
2023/05/02 04:02:40;;;;;;;11.80;3.88;;;8.10;99.90;;;;;;5015889;28;20124;-78
2023/05/02 04:05:07;;;;;;;8.07;3.50;;;8.10;99.90;;;;;;5031463;28;20049;-79
2023/05/02 04:07:33;;;;;;;18.48;3.67;;;8.00;99.90;;;;;;5032246;28;20053;-79
2023/05/02 04:09:59;;;;;;;11.05;3.67;;;8.00;99.90;;;;;;5029485;28;20053;-79
2023/05/02 04:12:24;;;;;;;7.70;2.83;;;7.90;99.90;;;;;;5034240;28;20094;-79
2023/05/02 04:14:50;;;;;;;10.23;3.40;;;7.80;99.90;;;;;;5048664;28;20044;-80
2023/05/02 04:17:16;;;;;;;11.35;3.60;;;7.80;99.90;;;;;;5047134;28;20191;-80
2023/05/02 04:19:41;;;;;;;13.88;3.58;;;7.80;99.90;;;;;;5052091;28;20075;-80
2023/05/02 04:22:07;;;;;;;15.40;3.50;;;7.70;99.90;;;;;;5059727;28;20032;-79
2023/05/02 04:24:33;;;;;;;13.45;3.70;;;7.70;99.90;;;;;;5030719;28;20094;-79
2023/05/02 04:26:58;;;;;;;11.52;3.28;;;7.70;99.90;;;;;;5018434;28;20052;-79
2023/05/02 04:29:24;;;;;;;14.60;4.07;;;7.70;99.90;;;;;;5040251;28;20199;-79
2023/05/02 04:31:51;;;;;;;11.02;3.58;;;7.70;99.90;;;;;;5032008;28;20490;-80
2023/05/02 04:34:16;;;;;;;11.65;3.65;;;7.70;99.90;;;;;;5031609;28;20045;-79
2023/05/02 04:36:44;;;;;;;13.52;3.25;;;7.70;99.90;;;;;;5031912;28;20041;-79
2023/05/02 04:39:10;;;;;;;13.80;3.50;;;7.70;99.90;;;;;;5031883;28;20740;-79
2023/05/02 04:41:35;;;;;;;10.50;3.05;;;7.70;99.90;;;;;;5049746;28;20106;-79
2023/05/02 04:44:01;;;;;;;10.65;2.97;;;7.70;99.90;;;;;;5036296;28;20053;-81
2023/05/02 04:46:27;;;;;;;11.23;2.58;;;7.70;99.90;;;;;;5023385;28;20087;-80
2023/05/02 04:48:53;;;;;;;7.30;2.83;;;7.70;99.90;;;;;;5050088;28;20479;-79
2023/05/02 04:51:18;;;;;;;6.88;2.22;;;7.70;99.90;;;;;;5048707;28;20098;-80
2023/05/02 04:53:44;;;;;;;9.48;2.50;;;7.70;99.90;;;;;;5022962;28;20185;-79
2023/05/02 04:56:10;;;;;;;6.20;2.35;;;7.70;99.90;;;;;;5043303;28;20044;-81
2023/05/02 04:58:36;;;;;;;4.45;2.47;;;7.70;99.90;;;;;;5045780;28;20140;-81
2023/05/02 05:01:01;;;;;;;8.80;2.58;;;7.70;99.90;;;;;;5035461;28;20049;-79
2023/05/02 05:03:31;;;;;;;7.78;2.08;;;7.70;99.90;;;;;;5049954;28;20072;-79
2023/05/02 05:05:57;;;;;;;4.90;1.95;;;7.70;99.90;;;;;;5032490;28;20056;-79
2023/05/02 05:08:23;;;;;;;5.97;2.50;;;7.70;99.90;;;;;;5048934;28;20045;-80
2023/05/02 05:10:49;;;;;;;5.97;2.35;;;7.70;99.90;;;;;;5030141;28;20497;-79
2023/05/02 05:13:14;;;;;;;7.47;2.40;;;7.70;99.90;;;;;;5031382;28;20045;-80
2023/05/02 05:15:40;;;;;;;8.00;2.60;;;7.70;99.90;;;;;;5029853;28;20045;-79
2023/05/02 05:18:06;;;;;;;6.43;2.85;;;7.70;99.90;;;;;;5038020;28;20088;-79
2023/05/02 05:20:32;;;;;;;8.35;2.97;;;7.70;99.90;;;;;;5029819;28;20140;-79
2023/05/02 05:22:58;;;;;;;8.27;2.72;;;7.80;99.90;;;;;;5029160;28;20409;-80
2023/05/02 05:25:26;;;;;;;6.57;2.33;;;7.80;99.90;;;;;;5030607;28;20125;-80
2023/05/02 05:27:52;;;;;;;8.23;2.17;;;7.80;99.90;;;;;;5048511;28;20125;-79
2023/05/02 05:30:17;;;;;;;7.97;2.25;;;7.90;99.90;;;;;;5031627;28;20106;-80
2023/05/02 05:32:43;;;;;;;4.15;2.13;;;7.90;99.90;;;;;;5029761;28;20041;-80
2023/05/02 05:35:09;;;;;;;5.60;2.08;;;7.90;99.90;;;;;;5031976;28;20127;-81
2023/05/02 05:37:38;;;;;;;5.97;1.77;;;7.90;99.90;;;;;;5030952;28;20045;-80
2023/05/02 05:40:08;;;;;;;6.97;2.40;;;8.00;99.90;;;;;;5046542;28;20057;-81
2023/05/02 05:42:33;;;;;;;5.82;2.67;;;8.00;99.90;;;;;;5029530;28;20110;-80
2023/05/02 05:45:00;;;;;;;5.78;2.30;;;8.10;99.90;;;;;;5013907;28;20049;-81
2023/05/02 05:47:27;;;;;;;7.10;2.45;;;8.20;99.90;;;;;;5013671;28;20072;-80
2023/05/02 05:49:53;;;;;;;5.30;2.35;;;8.30;99.90;;;;;;5030665;28;20114;-81
2023/05/02 05:52:19;;;;;;;8.45;2.55;;;8.40;99.90;;;;;;5031356;28;20059;-81
2023/05/02 05:54:45;;;;;;;7.50;2.50;;;8.30;99.90;;;;;;5030395;28;20041;-80
2023/05/02 05:57:11;;;;;;;5.75;2.45;;;8.30;99.90;;;;;;5030971;28;20047;-80
2023/05/02 05:59:36;;;;;;;5.07;2.55;;;8.30;99.90;;;;;;5031205;28;20053;-81
2023/05/02 06:02:02;;;;;;;6.30;2.20;;;8.20;99.90;;;;;;5030673;28;20411;-80
2023/05/02 06:04:29;;;;;;;6.25;2.42;;;8.20;99.90;;;;;;5030229;28;20140;-81
2023/05/02 06:06:54;;;;;;;5.70;2.53;;;8.20;99.90;;;;;;5049036;28;20052;-81
2023/05/02 06:09:20;;;;;;;9.77;3.05;;;8.80;99.90;;;;;;5044120;28;20045;-81
2023/05/02 06:11:46;;;;;;;8.73;2.30;;;8.30;99.90;;;;;;5023261;28;20053;-80
2023/05/02 06:14:13;;;;;;;5.53;2.72;;;8.40;99.90;;;;;;5028109;28;20063;-80
2023/05/02 06:16:42;;;;;;;7.10;3.05;;;8.20;99.90;;;;;;5026766;28;20385;-79
2023/05/02 06:19:08;;;;;;;6.43;3.10;;;8.20;99.90;;;;;;5028651;28;20111;-80
2023/05/02 06:21:36;;;;;;;6.53;2.90;;;8.60;99.90;;;;;;5022478;28;20402;-79
2023/05/02 06:24:05;;;;;;;10.38;2.72;;;8.30;99.90;;;;;;5030192;28;20080;-79
2023/05/02 06:26:31;;;;;;;6.32;2.83;;;8.30;99.90;;;;;;5048050;28;20052;-79
2023/05/02 06:28:56;;;;;;;7.55;2.63;;;8.30;99.90;;;;;;5030186;28;20049;-79
2023/05/02 06:31:22;;;;;;;5.93;2.22;;;8.30;99.90;;;;;;5047225;28;20394;-79
2023/05/02 06:33:48;;;;;;;6.88;2.70;;;8.40;99.90;;;;;;5048549;28;20048;-79
2023/05/02 06:36:13;;;;;;;7.47;2.45;;;8.40;99.90;;;;;;5047936;28;20041;-79
2023/05/02 06:38:39;;;;;;;7.40;2.72;;;8.90;99.90;;;;;;5046249;28;20067;-79
2023/05/02 06:41:08;;;;;;;7.00;2.67;;;8.40;99.90;;;;;;5029175;28;20143;-80
2023/05/02 06:43:36;;;;;;;6.10;2.42;;;8.40;99.90;;;;;;5046994;28;20160;-80
2023/05/02 06:46:02;;;;;;;10.95;3.15;;;8.50;99.90;;;;;;5047460;28;20103;-80
2023/05/02 06:48:28;;;;;;;10.23;2.63;;;8.50;99.90;;;;;;5047326;28;20041;-79
2023/05/02 06:50:53;;;;;;;6.38;2.50;;;8.50;99.90;;;;;;5030044;28;20384;-79
2023/05/02 06:53:19;;;;;;;7.78;2.50;;;8.50;99.90;;;;;;5029436;28;20087;-80
2023/05/02 06:55:45;;;;;;;8.07;2.50;;;8.50;99.90;;;;;;5030318;28;20045;-80
2023/05/02 06:58:11;;;;;;;7.95;2.63;;;8.60;99.90;;;;;;5030135;28;20095;-80
2023/05/02 07:00:39;;;;;;;7.55;2.83;;;8.50;99.90;;;;;;5047827;28;20053;-82
2023/05/02 07:03:05;;;;;;;7.30;2.90;;;8.50;99.90;;;;;;5029827;28;20094;-82
2023/05/02 07:05:30;;;;;;;9.73;3.15;;;8.50;99.90;;;;;;5029316;28;20041;-81
2023/05/02 07:07:56;;;;;;;7.20;2.13;;;8.50;99.90;;;;;;5028735;28;20080;-81
2023/05/02 07:10:24;;;;;;;10.68;2.92;;;8.50;99.90;;;;;;5012328;28;20060;-81
2023/05/02 07:12:49;;;;;;;4.97;2.22;;;8.50;99.90;;;;;;5028312;28;20045;-81
2023/05/02 07:15:15;;;;;;;7.57;2.75;;;8.50;99.90;;;;;;5029115;28;20106;-82
2023/05/02 07:17:41;;;;;;;8.75;2.88;;;8.60;99.90;;;;;;5028929;28;20041;-81
2023/05/02 07:20:09;;;;;;;5.65;2.40;;;8.70;99.90;;;;;;5026188;28;20037;-81
2023/05/02 07:22:35;;;;;;;9.07;2.42;;;8.80;99.90;;;;;;5025997;28;20091;-81
2023/05/02 07:25:01;;;;;;;6.50;2.55;;;9.00;99.90;;;;;;5028276;28;20606;-81
2023/05/02 07:27:27;;;;;;;7.10;2.47;;;9.10;99.90;;;;;;5028352;28;20060;-81
2023/05/02 07:29:53;;;;;;;10.40;2.78;;;9.20;99.90;;;;;;5046135;28;20037;-81
2023/05/02 07:32:24;;;;;;;10.50;2.90;;;9.10;99.90;;;;;;5028288;28;20048;-81
2023/05/02 07:34:53;;;;;;;10.45;2.67;;;9.20;99.90;;;;;;5029015;28;20514;-81
2023/05/02 07:37:19;;;;;;;6.60;2.83;;;9.20;99.90;;;;;;5029784;28;20127;-81
2023/05/02 07:39:44;;;;;;;7.65;2.70;;;9.20;99.90;;;;;;5030681;28;20518;-81
2023/05/02 07:42:10;;;;;;;10.52;2.85;;;9.20;99.90;;;;;;5013507;28;20049;-81
2023/05/02 07:44:35;;;;;;;9.45;2.78;;;9.50;99.90;;;;;;5012971;28;20124;-81
2023/05/02 07:47:01;;;;;;;9.00;2.40;;;9.30;99.90;;;;;;5047587;28;20049;-81
2023/05/02 07:49:27;;;;;;;8.90;2.80;;;9.30;99.90;;;;;;5028550;28;20095;-81
2023/05/02 07:51:52;;;;;;;4.50;2.60;;;9.30;99.90;;;;;;5029866;28;20527;-81
2023/05/02 07:54:20;;;;;;;10.15;2.47;;;9.20;99.90;;;;;;5029031;28;20147;-81
2023/05/02 07:56:46;;;;;;;6.43;2.78;;;9.40;99.90;;;;;;5012187;28;20062;-81
2023/05/02 07:59:13;;;;;;;6.60;2.70;;;9.40;99.90;;;;;;5029807;28;20460;-81
2023/05/02 08:01:42;;;;;;;6.45;2.85;;;9.40;99.90;;;;;;5028574;28;20048;-81
2023/05/02 08:04:10;;;;;;;17.60;3.47;;;9.50;99.90;;;;;;5046400;28;20099;-81
2023/05/02 08:06:36;;;;;;;8.25;2.55;;;9.40;99.90;;;;;;5028372;28;20049;-81
2023/05/02 08:09:01;;;;;;;6.75;2.33;;;9.50;99.90;;;;;;5028008;28;20090;-81
2023/05/02 08:11:27;;;;;;;6.95;2.30;;;9.60;99.90;;;;;;5042820;28;20033;-80
2023/05/02 08:13:53;;;;;;;5.50;2.17;;;9.60;99.90;;;;;;5044398;28;20040;-80
2023/05/02 08:16:19;;;;;;;5.88;2.78;;;9.70;99.90;;;;;;5028925;28;20041;-80
2023/05/02 08:18:45;;;;;;;4.30;2.20;;;9.80;99.90;;;;;;5046005;28;20094;-80
2023/05/02 08:21:11;;;;;;;4.05;2.00;;;9.90;99.90;;;;;;5029162;28;20045;-79
2023/05/02 08:23:37;;;;;;;7.72;2.28;;;9.90;99.90;;;;;;5026474;28;20565;-79
2023/05/02 08:26:03;;;;;;;5.72;1.85;;;10.00;99.90;;;;;;5030637;28;20089;-80
2023/05/02 08:28:30;;;;;;;7.05;2.50;;;10.00;99.90;;;;;;5020007;28;20496;-80
2023/05/02 08:30:56;;;;;;;6.03;1.98;;;10.00;99.90;;;;;;5042180;28;20049;-81
2023/05/02 08:33:39;;;;;;;6.80;2.22;;;10.00;99.90;;;;;;5049524;28;20055;-81
2023/05/02 08:36:15;;;;;;;7.60;2.42;;;10.30;99.90;;;;;;5035782;28;20084;-80
2023/05/02 08:38:45;;;;;;;6.65;2.42;;;10.10;99.90;;;;;;5049568;28;20511;-78
2023/05/02 08:41:12;;;;;;;9.40;2.80;;;10.20;99.90;;;;;;5050733;28;20092;-76
2023/05/02 08:43:38;;;;;;;7.18;2.28;;;10.30;99.90;;;;;;5047819;28;20138;-82
2023/05/02 08:46:08;;;;;;;3.83;2.00;;;10.40;99.90;;;;;;5032525;28;20090;-83
2023/05/02 08:48:39;;;;;;;8.02;2.70;;;10.40;99.90;;;;;;5032534;28;20057;-82
2023/05/02 08:51:13;;;;;;;7.82;2.22;;;10.50;99.90;;;;;;5032064;28;20041;-82
2023/05/02 08:53:40;;;;;;;9.88;2.30;;;10.70;99.90;;;;;;5031998;28;20041;-82
2023/05/02 08:56:07;;;;;;;6.85;2.00;;;10.70;99.90;;;;;;5032077;28;20060;-83
2023/05/02 08:58:37;;;;;;;4.00;2.70;;;10.70;99.90;;;;;;5049913;28;20159;-83
2023/05/02 09:01:16;;;;;;;5.63;2.13;;;10.60;99.90;;;;;;5030403;28;20273;-82
2023/05/02 09:03:46;;;;;;;8.00;2.38;;;10.60;99.90;;;;;;5031523;28;20041;-80
2023/05/02 09:06:17;;;;;;;7.20;2.40;;;10.70;99.90;;;;;;5050386;28;20052;-80
2023/05/02 09:08:47;;;;;;;5.55;2.10;;;10.80;99.90;;;;;;5048997;28;20329;-81
2023/05/02 09:11:15;;;;;;;6.57;2.35;;;10.80;99.90;;;;;;5031007;28;20151;-81
2023/05/02 09:13:48;;;;;;;6.72;2.35;;;10.80;99.90;;;;;;5032377;28;20059;-81
2023/05/02 09:16:16;;;;;;;6.80;2.70;;;10.80;99.90;;;;;;5050185;28;20151;-82
2023/05/02 09:18:46;;;;;;;6.07;2.00;;;10.90;99.90;;;;;;5048742;28;20045;-81
2023/05/02 09:21:17;;;;;;;6.63;2.35;;;11.00;99.90;;;;;;5048718;28;20053;-80
2023/05/02 09:23:45;;;;;;;5.22;1.85;;;11.00;99.90;;;;;;5031482;28;20513;-81
2023/05/02 09:26:32;;;;;;;8.05;2.95;;;10.90;99.90;;;;;;5049011;28;20040;-81
2023/05/02 09:29:00;;;;;;;8.10;3.00;;;10.70;99.90;;;;;;5031431;28;20049;-85
2023/05/02 09:31:35;;;;;;;6.85;2.60;;;10.60;99.90;;;;;;5031719;28;20411;-83
2023/05/02 09:34:21;;;;;;;6.53;2.17;;;10.50;97.60;;;;;;5030391;28;20049;-83
2023/05/02 09:36:50;;;;;;;6.70;2.33;;;10.40;97.70;;;;;;5046241;28;20415;-82
2023/05/02 09:39:20;;;;;;;4.22;2.13;;;10.40;99.90;;;;;;5025883;28;20061;-84
2023/05/02 09:41:47;;;;;;;4.97;2.15;;;10.50;99.90;;;;;;5047976;28;21443;-83
2023/05/02 09:44:17;;;;;;;3.40;1.80;;;10.70;99.90;;;;;;5030105;28;20084;-84
2023/05/02 09:46:45;;;;;;;5.85;1.90;;;11.20;99.90;;;;;;5030619;28;20045;-84
2023/05/02 09:49:13;;;;;;;6.95;1.90;;;11.00;98.40;;;;;;5030341;28;20151;-85
2023/05/02 09:51:42;;;;;;;6.95;2.28;;;10.90;99.90;;;;;;5030469;28;20067;-82
2023/05/02 09:54:10;;;;;;;5.20;2.38;;;10.90;99.90;;;;;;5047375;28;20053;-83
2023/05/02 09:56:56;;;;;;;3.10;2.15;;;11.00;99.90;;;;;;5048566;28;20554;-82
2023/05/02 09:59:22;;;;;;;7.28;2.67;;;11.00;98.40;;;;;;5029367;28;20064;-82
2023/05/02 10:01:59;;;;;;;6.70;1.90;;;11.20;99.90;;;;;;5047749;28;20037;-82
2023/05/02 10:04:25;;;;;;;6.85;1.95;;;11.20;99.90;;;;;;5031086;28;20431;-81
2023/05/02 10:06:52;;;;;;;6.32;2.53;;;11.30;99.90;;;;;;5030698;28;20063;-83
2023/05/02 10:09:21;;;;;;;7.22;2.20;;;11.50;99.90;;;;;;5029482;28;20170;-82
2023/05/02 10:11:52;;;;;;;;;;;12.00;99.90;;;;;;5029218;28;20195;-82
2023/05/02 10:14:21;;;;;;;3.92;1.65;;;11.50;87.90;;;;;;5046295;28;20255;-82
2023/05/02 10:16:50;;;;;;;4.03;1.83;;;11.80;99.90;;;;;;5045734;28;20049;-82
2023/05/02 10:19:22;;;;;;;4.50;1.95;;;11.90;99.90;;;;;;5045410;28;20678;-82
2023/05/02 10:21:49;;;;;;;5.35;1.77;;;12.00;99.90;;;;;;5049035;28;20052;-82
2023/05/02 10:24:15;;;;;;;4.20;1.40;;;12.30;99.90;;;;;;5029304;28;20037;-84
2023/05/02 10:26:42;;;;;;;3.65;1.63;;;12.40;99.90;;;;;;5031088;28;20064;-83
2023/05/02 10:29:08;;;;;;;4.78;1.60;;;12.60;99.90;;;;;;5048478;28;20842;-84
2023/05/02 10:31:36;;;;;;;7.47;1.90;;;12.80;99.90;;;;;;5044365;28;20087;-82
2023/05/02 10:34:03;;;;;;;4.88;1.60;;;13.00;99.90;;;;;;5027047;28;20437;-82
2023/05/02 10:36:32;;;;;;;2.28;1.25;;;13.00;99.90;;;;;;5018101;28;20128;-82
2023/05/02 10:38:57;;;;;;;4.68;1.50;;;13.20;99.60;;;;;;5029808;28;20103;-82
2023/05/02 10:41:30;;;;;;;6.07;1.83;;;13.50;99.90;;;;;;5029643;28;20052;-81
2023/05/02 10:43:55;;;;;;;;;;;12.50;94.70;;;;;;5030441;28;20457;-81
2023/05/02 10:46:35;;;;;;;4.85;1.70;;;12.50;89.60;;;;;;5053756;28;20021;-81
2023/05/02 10:49:06;;;;;;;6.18;1.70;;;12.60;99.90;;;;;;5024591;28;20037;-82
2023/05/02 10:51:33;;;;;;;7.03;2.22;;;12.40;99.90;;;;;;5028864;28;20380;-82
2023/05/02 10:54:18;;;;;;;5.05;1.58;;;12.40;99.90;;;;;;5028712;28;20033;-82
2023/05/02 10:57:02;;;;;;;5.68;2.10;;;12.30;96.50;;;;;;5047549;28;20072;-83
2023/05/02 10:59:30;;;;;;;5.20;1.77;;;12.50;96.50;;;;;;5029145;28;20061;-83
2023/05/02 11:01:56;;;;;;;4.28;1.65;;;13.30;99.90;;;;;;5047791;28;20407;-82
2023/05/02 11:04:42;;;;;;;4.13;1.42;;;12.70;93.10;;;;;;5047662;28;20064;-81
2023/05/02 11:07:18;;;;;;;3.95;1.20;;;12.70;99.90;;;;;;5013285;28;20391;-82
2023/05/02 11:09:43;;;;;;;5.32;1.50;;;12.60;92.10;;;;;;5029028;28;20517;-82
2023/05/02 11:12:09;;;;;;;2.08;1.27;;;12.80;99.10;;;;;;5029489;28;20068;-83
2023/05/02 11:14:38;;;;;;;4.70;1.40;;;12.60;97.30;;;;;;5029048;28;20076;-83
2023/05/02 11:17:03;;;;;;;2.78;1.23;;;12.70;96.00;;;;;;5029204;28;20250;-83
2023/05/02 11:19:37;;;;;;;4.32;1.23;;;12.90;97.80;;;;;;5046924;28;20112;-83
2023/05/02 11:22:25;;;;;;;2.60;1.55;;;12.70;96.40;;;;;;5028827;28;20492;-83
2023/05/02 11:24:51;;;;;;;4.15;1.73;;;12.90;94.50;;;;;;5029625;28;20103;-82
2023/05/02 11:27:29;;;;;;;2.90;1.00;;;12.90;98.00;;;;;;5029194;28;20045;-83
2023/05/02 11:29:56;;;;;;;3.67;1.15;;;12.70;73.40;;;;;;5024895;28;20132;-83
2023/05/02 11:32:22;;;;;;;1.98;0.90;;;12.60;96.10;;;;;;5027207;28;20045;-83
2023/05/02 11:34:51;;;;;;;2.30;1.23;;;12.70;97.20;;;;;;5029688;28;20049;-83
2023/05/02 11:37:19;;;;;;;2.08;1.20;;;12.80;98.10;;;;;;5028872;28;20053;-83
2023/05/02 11:39:47;;;;;;;4.90;1.35;;;12.90;98.30;;;;;;5027697;28;20129;-83
2023/05/02 11:42:43;;;;;;;2.08;1.15;;;13.00;98.30;;;;;;5027802;28;20059;-83
2023/05/02 11:45:08;;;;;;;4.03;1.33;;;13.10;79.10;;;;;;5027635;28;20107;-83
2023/05/02 11:47:34;;;;;;;1.73;1.17;;;13.00;96.50;;;;;;5027501;28;20048;-83
2023/05/02 11:50:04;;;;;;;1.95;0.98;;;12.90;96.80;;;;;;5027243;28;20398;-84
2023/05/02 11:52:35;;;;;;;3.67;1.30;;;12.80;95.80;;;;;;5027943;28;20040;-83
2023/05/02 11:55:02;;;;;;;4.18;1.48;;;12.90;97.50;;;;;;5030394;28;20049;-83
2023/05/02 11:57:27;;;;;;;2.60;1.17;;;12.90;97.20;;;;;;5029610;28;20178;-84
2023/05/02 11:59:57;;;;;;;4.15;1.55;;;13.00;97.90;;;;;;5029854;28;20128;-84
2023/05/02 12:02:41;;;;;;;4.55;1.20;;;13.00;97.50;;;;;;5027510;28;20045;-84
2023/05/02 12:05:08;;;;;;;3.33;1.20;;;13.00;93.10;;;;;;5045685;28;20042;-84
2023/05/02 12:07:45;;;;;;;4.07;1.65;;;12.90;98.00;;;;;;5030641;28;20077;-84
2023/05/02 12:10:11;;;;;;;3.63;1.20;;;12.80;97.30;;;;;;5032670;28;20545;-83
2023/05/02 12:12:38;;;;;;;5.53;1.55;;;12.70;97.90;;;;;;5032700;28;20053;-84
2023/05/02 12:15:08;;;;;;;4.10;1.73;;;12.60;98.30;;;;;;5032423;28;20045;-84
2023/05/02 12:17:48;;;;;;;3.92;1.80;;;12.50;97.70;;;;;;5032528;28;20836;-83
2023/05/02 12:20:14;;;;;;;3.25;1.45;;;12.40;97.60;;;;;;5049254;28;20107;-83
2023/05/02 12:22:40;;;;;;;2.22;1.40;;;12.30;98.50;;;;;;5032448;28;20468;-84
2023/05/02 12:25:07;;;;;;;2.20;1.20;;;12.30;95.70;;;;;;5016190;28;20590;-84
2023/05/02 12:27:34;;;;;;;4.43;1.33;;;12.20;98.30;;;;;;5032813;28;20802;-83
2023/05/02 12:30:00;;;;;;;4.03;1.60;;;12.20;99.60;;;;;;5033233;28;20060;-83
2023/05/02 12:32:30;;;;;;;2.88;1.55;;;12.30;99.30;;;;;;5014839;28;20098;-84
2023/05/02 12:34:56;;;;;;;2.13;1.55;;;12.40;99.30;;;;;;5031328;28;20488;-84
2023/05/02 12:37:23;;;;;;;3.30;1.20;;;12.30;98.20;;;;;;5031876;28;20087;-83
2023/05/02 12:39:49;;;;;;;2.63;1.52;;;12.40;98.80;;;;;;5030731;28;20052;-83
2023/05/02 12:42:16;;;;;;;2.17;1.40;;;12.50;99.20;;;;;;5050621;28;20056;-83
2023/05/02 12:44:44;;;;;;;2.83;1.60;;;13.00;97.20;;;;;;5050885;28;20049;-84
2023/05/02 12:47:12;;;;;;;2.90;1.30;;;12.70;97.70;;;;;;5032081;28;20041;-83
2023/05/02 12:49:55;;;;;;;3.30;1.27;;;12.90;97.20;;;;;;5032671;28;20490;-83
2023/05/02 12:52:45;;;;;;;3.38;1.30;;;12.50;92.10;;;;;;5032547;28;20048;-83
2023/05/02 12:55:26;;;;;;;3.67;1.50;;;12.40;92.00;;;;;;5031407;28;20073;-83
2023/05/02 12:58:05;;;;;;;1.95;1.50;;;12.40;94.90;;;;;;5032032;28;20495;-84
2023/05/02 13:00:33;;;;;;;3.65;1.40;;;12.70;96.40;;;;;;5031726;28;20090;-84